Time;durP1;ratioP1;P1;durP2;ratioP2;P2;SDS_P1;SDS_P2;PMS_P1;PMS_P2;Temp;Humidity;BMP_temperature;BMP_pressure;BME280_temperature;BME280_humidity;BME280_pressure;Samples;Min_cycle;Max_cycle;Signal;HPM_P1;HPM_P2
2022/03/22 00:02:23;;;;;;;16.10;13.80;;;5.60;1.00;;;5.27;41.15;103019.47;4974573;28;20191;-71
2022/03/22 00:04:52;;;;;;;22.08;15.70;;;5.50;1.00;;;5.19;41.18;103024.56;4975461;28;20216;-70
2022/03/22 00:07:21;;;;;;;19.42;14.13;;;5.40;1.00;;;5.32;41.06;103019.13;4975012;28;20183;-69
2022/03/22 00:09:52;;;;;;;19.35;14.68;;;5.40;1.00;;;5.35;40.90;103017.06;4974438;28;20215;-70
2022/03/22 00:12:21;;;;;;;22.55;15.70;;;5.50;1.00;;;5.31;41.02;103025.47;4974733;28;20202;-70
2022/03/22 00:14:50;;;;;;;21.40;15.63;;;5.50;1.00;;;5.21;41.46;103025.31;4975029;28;20276;-70
2022/03/22 00:17:39;;;;;;;20.35;15.27;;;5.40;1.00;;;5.15;41.42;103023.06;4975358;28;20195;-69
2022/03/22 00:20:11;;;;;;;20.77;15.95;;;5.40;1.00;;;5.03;41.64;103027.56;4975072;28;20215;-70
2022/03/22 00:22:40;;;;;;;17.15;14.75;;;5.30;1.00;;;5.18;41.86;103020.19;4975177;28;20168;-69
2022/03/22 00:25:14;;;;;;;20.83;14.43;;;5.30;1.00;;;4.98;41.67;103026.19;4975756;28;20204;-70
2022/03/22 00:27:53;;;;;;;16.45;14.15;;;5.30;1.00;;;4.87;41.98;103020.75;4975450;28;20688;-70
2022/03/22 00:30:26;;;;;;;21.58;14.43;;;5.10;1.00;;;4.89;41.63;103013.44;4973413;28;20227;-70
2022/03/22 00:32:58;;;;;;;16.50;14.02;;;5.10;1.00;;;4.81;42.37;103014.00;4974791;28;20176;-70
2022/03/22 00:35:30;;;;;;;23.27;14.40;;;5.10;1.00;;;4.79;42.32;103018.66;4974522;28;20526;-70
2022/03/22 00:38:01;;;;;;;19.40;15.40;;;5.00;1.00;;;4.76;42.17;103019.72;4974461;28;20171;-70
2022/03/22 00:40:32;;;;;;;20.58;14.70;;;5.00;1.00;;;4.81;42.14;103020.22;4974141;28;20593;-70
2022/03/22 00:43:01;;;;;;;22.35;15.52;;;5.00;1.00;;;4.67;42.53;103014.16;4973846;28;20192;-70
2022/03/22 00:45:33;;;;;;;17.40;15.20;;;4.90;1.00;;;4.76;42.32;103013.47;4974863;28;20195;-71
2022/03/22 00:48:05;;;;;;;21.80;15.75;;;5.00;1.00;;;4.59;42.42;103016.56;4974602;28;20218;-69
2022/03/22 00:50:39;;;;;;;23.25;15.60;;;4.90;1.00;;;4.48;42.58;103011.97;4974203;28;20215;-70
2022/03/22 00:53:10;;;;;;;24.17;15.35;;;4.80;1.00;;;4.46;43.03;103016.56;4974351;28;20184;-70
2022/03/22 00:55:41;;;;;;;19.77;15.73;;;4.80;1.00;;;4.39;43.06;103015.31;4973762;28;20172;-70
2022/03/22 00:58:10;;;;;;;21.45;14.77;;;4.70;1.00;;;4.28;43.01;103007.19;4974150;28;20545;-71
2022/03/22 01:00:40;;;;;;;27.60;15.40;;;4.60;1.00;;;4.29;43.46;103008.91;4973563;28;20258;-71
2022/03/22 01:03:10;;;;;;;20.30;15.98;;;4.60;1.00;;;4.31;43.15;103001.59;4973851;28;20654;-70
2022/03/22 01:05:40;;;;;;;18.95;14.38;;;4.60;1.00;;;4.48;42.82;103009.28;4973019;28;20199;-69
2022/03/22 01:08:11;;;;;;;17.58;13.70;;;4.70;1.00;;;4.40;43.27;103003.63;4972202;28;20199;-70
2022/03/22 01:10:52;;;;;;;19.45;14.18;;;4.70;1.00;;;4.44;43.18;103006.94;4976280;28;20215;-70
2022/03/22 01:13:25;;;;;;;18.73;14.40;;;4.70;1.00;;;4.37;43.21;103002.00;4983741;28;20635;-70
2022/03/22 01:15:58;;;;;;;23.52;15.07;;;4.60;1.00;;;4.41;43.21;103008.00;4982567;28;20192;-69
2022/03/22 01:18:27;;;;;;;22.35;14.57;;;4.60;1.00;;;4.33;43.55;103007.72;4984495;28;20400;-70
2022/03/22 01:20:57;;;;;;;24.15;15.77;;;4.60;1.00;;;4.30;43.50;102999.91;4980142;28;20207;-70
2022/03/22 01:23:28;;;;;;;19.48;14.18;;;4.60;1.00;;;4.33;43.43;102995.16;4971632;28;20543;-69
2022/03/22 01:25:59;;;;;;;20.90;15.40;;;4.60;1.00;;;4.43;43.59;102998.03;4971827;28;20199;-71
2022/03/22 01:28:30;;;;;;;21.33;15.80;;;4.60;1.00;;;4.44;43.48;103001.56;4971738;28;20231;-71
2022/03/22 01:31:00;;;;;;;17.05;14.18;;;4.60;1.00;;;4.34;43.51;102996.03;4972238;28;20219;-69
2022/03/22 01:33:29;;;;;;;16.55;14.25;;;4.60;1.00;;;4.22;43.81;102991.53;4972292;28;20183;-70
2022/03/22 01:35:58;;;;;;;20.10;14.90;;;4.50;1.00;;;4.35;43.62;102992.38;4971718;28;20183;-70
2022/03/22 01:38:27;;;;;;;20.17;15.68;;;4.50;1.00;;;4.37;43.66;102985.94;4971572;28;20179;-69
2022/03/22 01:40:56;;;;;;;18.65;14.63;;;4.60;1.00;;;4.31;44.00;102985.50;4972880;28;20343;-71
2022/03/22 01:43:26;;;;;;;19.00;13.63;;;4.50;1.00;;;4.16;43.88;102986.63;4973958;28;20195;-71
2022/03/22 01:45:55;;;;;;;21.08;15.27;;;4.40;1.00;;;4.24;43.95;102984.25;4974017;28;20628;-69
2022/03/22 01:48:24;;;;;;;18.27;14.07;;;4.40;1.00;;;4.22;43.82;102973.63;4972596;28;20184;-71
2022/03/22 01:50:56;;;;;;;18.40;14.95;;;4.40;1.00;;;4.16;44.14;102971.41;4972072;28;20234;-70
2022/03/22 01:53:25;;;;;;;18.70;14.30;;;4.40;1.00;;;4.06;44.63;102966.81;4971551;28;20180;-70
2022/03/22 01:55:54;;;;;;;18.38;13.90;;;4.30;1.00;;;4.04;44.46;102966.06;4971509;28;20520;-71
2022/03/22 01:58:24;;;;;;;23.50;14.32;;;4.30;1.00;;;4.02;44.42;102959.97;4971385;28;20199;-69
2022/03/22 02:05:51;;;;;;;23.27;17.17;;;4.30;1.00;;;3.84;44.52;102965.66;4971025;28;20218;-69
2022/03/22 02:06:34;;;;;;;23.70;15.20;;;4.10;1.00;;;3.70;45.38;102967.59;4971664;28;20600;-69
2022/03/22 02:09:04;;;;;;;20.13;14.32;;;4.10;1.00;;;3.96;44.58;102968.44;4970990;28;20192;-71
2022/03/22 02:11:34;;;;;;;21.08;15.18;;;4.10;1.00;;;4.08;44.53;102962.19;4971166;28;20650;-70
2022/03/22 02:14:03;;;;;;;25.83;16.08;;;4.20;1.00;;;3.85;44.66;102966.50;4971006;28;20216;-70
2022/03/22 02:16:34;;;;;;;21.15;15.50;;;4.10;1.00;;;3.84;44.81;102960.28;4971533;28;20654;-70
2022/03/22 02:19:08;;;;;;;20.83;15.00;;;4.10;1.00;;;3.74;44.71;102958.38;4974960;28;20188;-69
2022/03/22 02:21:41;;;;;;;20.25;15.95;;;4.00;1.00;;;3.55;45.35;102957.94;4974775;28;20180;-68
2022/03/22 02:24:12;;;;;;;24.08;15.95;;;3.90;1.00;;;3.42;45.82;102961.47;4975708;28;20175;-70
2022/03/22 02:26:41;;;;;;;22.95;15.48;;;3.80;1.00;;;3.34;45.95;102952.28;4990035;28;20207;-69
2022/03/22 02:29:10;;;;;;;20.42;14.73;;;3.70;1.00;;;3.57;45.78;102962.25;4979567;28;20183;-71
2022/03/22 02:31:39;;;;;;;18.95;14.00;;;3.70;1.00;;;3.57;45.61;102956.88;4975280;28;20203;-69
2022/03/22 02:34:08;;;;;;;20.88;15.77;;;3.80;1.00;;;3.44;45.73;102956.00;4974881;28;20176;-70
2022/03/22 02:36:37;;;;;;;23.45;15.75;;;3.80;1.00;;;3.68;45.35;102956.97;4974691;28;20678;-69
2022/03/22 02:39:06;;;;;;;24.83;15.73;;;3.80;1.00;;;3.57;45.37;102959.56;4974787;28;20195;-69
2022/03/22 02:41:37;;;;;;;19.48;15.85;;;3.80;1.00;;;3.53;45.64;102955.38;4975613;28;20697;-69
2022/03/22 02:44:06;;;;;;;24.92;17.40;;;3.80;1.00;;;3.55;45.55;102956.13;4975565;28;20665;-70
2022/03/22 02:46:36;;;;;;;28.60;14.68;;;3.80;1.00;;;3.53;45.49;102959.88;4975381;28;20559;-67
2022/03/22 02:49:06;;;;;;;19.23;15.45;;;3.80;1.00;;;3.56;45.67;102954.31;4975490;28;20179;-70
2022/03/22 02:51:35;;;;;;;16.98;14.40;;;3.80;1.00;;;3.62;45.49;102960.09;4976131;28;20207;-69
2022/03/22 02:54:04;;;;;;;21.88;14.95;;;3.80;1.00;;;3.81;45.17;102968.56;4976271;28;20187;-68
2022/03/22 02:56:33;;;;;;;21.13;13.68;;;3.90;1.00;;;3.62;45.34;102962.78;4975044;28;20184;-68
2022/03/22 02:59:04;;;;;;;16.23;14.48;;;3.80;1.00;;;3.57;45.48;102962.25;4974616;28;20191;-67
2022/03/22 03:01:34;;;;;;;19.88;16.25;;;3.80;1.00;;;3.71;45.26;102963.94;4974729;28;20172;-69
2022/03/22 03:04:03;;;;;;;21.27;15.48;;;3.90;1.00;;;3.60;45.39;102964.69;4974574;28;20176;-69
2022/03/22 03:06:32;;;;;;;25.20;14.65;;;3.80;1.00;;;3.33;46.00;102956.75;4974896;28;20286;-70
2022/03/22 03:09:02;;;;;;;19.10;14.82;;;3.70;1.00;;;3.16;46.34;102959.72;4974869;28;20210;-73
2022/03/22 03:11:30;;;;;;;21.27;15.57;;;3.60;1.00;;;3.16;46.55;102957.03;4974552;28;20191;-71
2022/03/22 03:16:46;;;;;;;20.13;14.75;;;3.50;1.00;;;3.31;45.79;102960.50;4975189;28;20175;-69
2022/03/22 03:19:15;;;;;;;18.48;14.85;;;3.50;1.00;;;3.32;46.35;102967.56;4975492;28;20211;-69
2022/03/22 03:21:44;;;;;;;20.45;14.90;;;3.60;1.00;;;3.21;46.31;102964.75;4975105;28;20184;-69
2022/03/22 03:24:14;;;;;;;18.13;15.68;;;3.50;1.00;;;3.18;46.44;102965.84;4975259;28;20163;-71
2022/03/22 03:26:43;;;;;;;20.15;14.70;;;3.40;1.00;;;3.25;46.12;102969.78;4974045;28;20232;-69
2022/03/22 03:29:11;;;;;;;18.45;14.38;;;3.40;1.00;;;3.11;46.21;102967.19;4974170;28;20214;-69
2022/03/22 03:31:40;;;;;;;21.50;15.10;;;3.40;1.00;;;3.17;46.50;102973.94;4973010;28;20234;-70
2022/03/22 03:34:11;;;;;;;21.23;14.98;;;3.40;1.00;;;3.39;45.70;102964.34;4974219;28;20210;-70
2022/03/22 03:36:39;;;;;;;19.85;14.70;;;3.50;1.00;;;3.30;46.29;102977.50;4974023;28;20179;-70
2022/03/22 03:39:09;;;;;;;21.05;14.10;;;3.50;1.00;;;3.23;46.12;102976.22;4979322;28;20195;-69
2022/03/22 03:41:55;;;;;;;18.85;15.55;;;3.50;1.00;;;3.25;46.02;102977.81;4980277;28;20199;-69
2022/03/22 03:47:16;;;;;;;17.83;14.40;;;3.50;1.00;;;3.25;45.94;102972.47;4973414;28;20689;-71
2022/03/22 03:49:49;;;;;;;20.63;14.85;;;3.50;1.00;;;3.38;45.84;102977.84;4973595;28;20211;-69
2022/03/22 03:52:21;;;;;;;23.95;16.70;;;3.50;1.00;;;3.50;45.50;102977.00;4974291;28;20705;-71
2022/03/22 03:54:52;;;;;;;26.92;15.00;;;3.60;1.00;;;3.35;46.02;102970.88;4974076;28;20182;-70
2022/03/22 03:57:22;;;;;;;20.23;14.88;;;3.50;1.00;;;3.30;45.94;102974.81;4973740;28;20179;-70
2022/03/22 03:59:52;;;;;;;17.98;15.85;;;3.50;1.00;;;3.24;46.21;102972.59;4973863;28;20207;-69
2022/03/22 04:02:22;;;;;;;22.23;15.13;;;3.40;1.00;;;3.24;46.15;102980.63;4973704;28;20203;-68
2022/03/22 04:04:53;;;;;;;29.00;16.10;;;3.40;1.00;;;3.21;46.08;102979.00;4973961;28;20176;-69
2022/03/22 04:07:27;;;;;;;22.50;14.57;;;3.40;1.00;;;3.13;46.03;102975.13;4973561;28;20302;-68
2022/03/22 04:09:56;;;;;;;18.30;13.40;;;3.40;1.00;;;3.14;46.22;102979.53;4973766;28;20302;-68
2022/03/22 04:12:25;;;;;;;20.83;14.90;;;3.40;1.00;;;3.09;46.38;102976.28;4973793;28;20234;-71
2022/03/22 04:14:53;;;;;;;18.42;14.30;;;3.40;1.00;;;2.97;46.60;102978.81;4987921;23;20254;-67
2022/03/22 04:17:23;;;;;;;18.23;14.75;;;3.30;1.00;;;2.88;46.82;102981.25;4976345;28;20187;-67
2022/03/22 04:19:53;;;;;;;20.55;15.50;;;3.20;1.00;;;2.78;46.97;102983.69;4976091;28;20208;-67
2022/03/22 04:22:22;;;;;;;19.80;15.77;;;3.10;4.40;;;2.84;47.05;102977.94;4975960;28;20207;-67
2022/03/22 04:24:51;;;;;;;21.77;14.25;;;3.10;1.00;;;2.92;46.81;102980.09;4974405;28;20200;-67
2022/03/22 04:33:02;;;;;;;19.67;14.15;;;3.20;1.00;;;2.85;47.20;102984.16;4950581;28;20207;-69
2022/03/22 04:35:32;;;;;;;23.30;16.40;;;3.10;1.00;;;2.86;46.96;102984.03;4974500;28;20180;-69
2022/03/22 04:38:01;;;;;;;21.90;15.18;;;3.10;1.00;;;2.68;47.18;102982.56;4973042;28;20224;-69
2022/03/22 04:40:31;;;;;;;22.58;16.05;;;3.00;1.00;;;2.75;47.13;102983.03;4972370;28;20233;-68
2022/03/22 04:43:00;;;;;;;24.52;15.15;;;3.10;1.00;;;2.85;46.73;102989.50;4972611;28;20257;-69
2022/03/22 04:45:30;;;;;;;31.23;16.45;;;3.10;1.00;;;2.82;46.88;102984.31;4972669;28;20188;-68
2022/03/22 04:47:59;;;;;;;22.50;15.32;;;3.00;1.00;;;2.85;46.83;102987.69;4973726;28;20214;-70
2022/03/22 04:50:28;;;;;;;22.30;15.55;;;3.00;1.00;;;3.03;46.42;102989.13;4972086;28;20203;-69
2022/03/22 04:58:33;;;;;;;20.52;15.48;;;3.00;1.00;;;2.71;47.20;102989.53;4972529;28;20167;-69
2022/03/22 05:01:02;;;;;;;24.30;16.17;;;3.00;1.00;;;2.72;46.84;102997.44;4972255;28;20600;-69
2022/03/22 05:03:31;;;;;;;23.00;15.65;;;3.00;1.00;;;2.91;47.05;102994.41;4972398;28;20175;-69
2022/03/22 05:08:48;;;;;;;25.45;16.00;;;3.20;1.00;;;2.87;46.73;103001.78;4972205;28;20677;-69
2022/03/22 05:11:17;;;;;;;19.92;16.65;;;3.10;1.00;;;3.14;46.20;103008.97;4972366;28;20678;-69
2022/03/22 05:13:46;;;;;;;29.38;18.13;;;3.20;1.00;;;2.99;46.54;103001.00;4972048;28;20202;-71
2022/03/22 05:16:15;;;;;;;22.92;16.75;;;3.20;1.00;;;2.98;46.51;103003.75;4972197;28;20677;-71
2022/03/22 05:18:44;;;;;;;22.40;15.75;;;3.20;1.00;;;3.11;46.22;103001.09;4970712;28;20595;-70
2022/03/22 05:21:13;;;;;;;20.90;16.17;;;3.20;1.00;;;3.03;46.46;103015.00;4971762;28;20204;-70
2022/03/22 05:23:44;;;;;;;21.70;16.13;;;3.20;1.00;;;3.21;46.21;103008.44;4972357;28;20550;-69
2022/03/22 05:26:15;;;;;;;24.10;17.48;;;3.30;1.00;;;3.21;46.15;103011.09;4971980;28;20671;-70
2022/03/22 05:28:44;;;;;;;23.13;16.55;;;3.30;1.00;;;3.16;46.23;103010.56;4972631;28;20203;-71
2022/03/22 05:31:15;;;;;;;22.25;16.88;;;3.30;1.00;;;3.08;46.64;103012.03;4972307;28;20207;-70
2022/03/22 05:33:44;;;;;;;18.90;15.23;;;3.20;1.00;;;3.19;46.42;103007.69;4972253;28;20635;-69
2022/03/22 05:36:13;;;;;;;19.58;16.20;;;3.30;1.00;;;3.17;46.54;103006.91;4971870;28;20180;-69
2022/03/22 05:38:42;;;;;;;24.95;17.60;;;3.30;1.00;;;3.15;46.53;103008.00;4972322;28;20239;-71
2022/03/22 05:41:11;;;;;;;23.55;16.52;;;3.30;1.00;;;3.18;46.60;103008.66;4971747;28;20238;-69
2022/03/22 05:43:42;;;;;;;21.70;16.58;;;3.30;1.00;;;3.43;45.93;103013.19;4971998;28;20207;-70
2022/03/22 05:46:12;;;;;;;27.30;15.80;;;3.40;1.00;;;3.34;46.08;103013.81;4972402;28;20642;-70
2022/03/22 05:48:41;;;;;;;25.98;16.02;;;3.40;1.00;;;3.51;45.76;103016.19;4972028;28;20203;-68
2022/03/22 05:51:10;;;;;;;23.02;17.90;;;3.50;1.00;;;3.50;45.85;103011.81;4973371;28;20745;-69
2022/03/22 05:53:39;;;;;;;24.27;17.52;;;3.60;1.00;;;3.55;45.87;103024.88;4978547;28;20234;-69
2022/03/22 05:56:08;;;;;;;24.60;18.02;;;3.60;1.00;;;3.46;46.13;103018.34;4978608;28;20254;-69
2022/03/22 05:58:37;;;;;;;21.38;18.75;;;3.60;1.00;;;3.65;45.59;103012.56;4978809;28;20443;-69
2022/03/22 06:01:07;;;;;;;23.23;17.52;;;3.60;1.00;;;3.55;45.90;103023.06;4978564;28;20654;-69
2022/03/22 06:03:37;;;;;;;22.73;17.08;;;3.60;1.00;;;3.64;45.91;103021.56;4978796;28;20175;-68
2022/03/22 06:06:06;;;;;;;22.30;15.85;;;3.70;1.00;;;3.65;45.78;103031.31;4978869;28;20259;-69
2022/03/22 06:08:35;;;;;;;24.83;17.88;;;3.70;1.00;;;3.82;45.28;103026.53;4979619;28;20203;-68
2022/03/22 06:11:04;;;;;;;33.90;24.05;;;3.80;1.00;;;3.96;45.21;103024.69;4982750;28;20250;-69
2022/03/22 06:13:32;;;;;;;31.08;22.40;;;3.90;1.00;;;4.05;45.14;103026.72;4963830;28;20207;-69
2022/03/22 06:16:05;;;;;;;25.05;17.30;;;4.00;1.00;;;4.17;44.94;103037.44;4982160;28;20187;-70
2022/03/22 06:18:36;;;;;;;23.58;16.77;;;4.20;1.00;;;4.22;44.87;103032.59;4981032;28;20171;-70
2022/03/22 06:21:05;;;;;;;22.98;17.60;;;4.20;1.00;;;4.40;44.13;103035.81;4979388;28;20211;-70
2022/03/22 06:23:34;;;;;;;23.90;16.80;;;4.30;1.00;;;4.40;44.17;103030.44;4979330;28;20211;-70
2022/03/22 06:26:03;;;;;;;24.67;17.92;;;4.40;1.00;;;4.46;43.94;103038.03;4979878;28;20199;-69
2022/03/22 06:28:32;;;;;;;21.33;16.33;;;4.50;1.00;;;4.61;43.63;103036.06;4978870;28;20233;-69
2022/03/22 06:31:01;;;;;;;29.67;18.88;;;4.60;1.00;;;4.82;42.72;103042.53;4978579;28;20213;-69
2022/03/22 06:33:30;;;;;;;24.63;19.58;;;4.70;1.00;;;5.04;42.74;103044.47;4980042;28;20230;-70
2022/03/22 06:36:00;;;;;;;23.33;16.52;;;4.90;1.00;;;5.15;42.34;103047.22;4979012;28;20238;-70
2022/03/22 06:38:32;;;;;;;23.33;17.63;;;5.00;1.00;;;5.16;41.92;103043.59;4979544;28;20215;-69
2022/03/22 06:41:01;;;;;;;19.42;17.23;;;5.10;1.00;;;5.24;41.96;103035.81;4979006;28;20249;-70
2022/03/22 06:43:30;;;;;;;22.10;17.30;;;5.20;1.00;;;5.36;41.72;103040.25;4978770;28;20179;-71
2022/03/22 06:45:59;;;;;;;25.65;18.25;;;5.30;1.00;;;5.54;41.40;103041.53;4979024;28;20176;-69
2022/03/22 06:48:28;;;;;;;23.48;17.67;;;5.50;1.00;;;5.58;41.09;103044.84;4978620;28;20195;-69
2022/03/22 06:50:57;;;;;;;25.33;19.98;;;5.50;1.00;;;5.79;40.80;103037.81;4979197;28;20690;-71
2022/03/22 06:53:27;;;;;;;30.02;20.50;;;5.70;1.00;;;5.88;40.82;103053.25;4979030;28;20283;-69
2022/03/22 06:55:57;;;;;;;19.75;17.63;;;5.80;1.00;;;6.02;40.31;103046.78;4978828;28;20214;-69
2022/03/22 06:58:29;;;;;;;28.08;19.40;;;5.90;1.00;;;6.15;40.06;103044.03;4979030;28;20176;-70
2022/03/22 07:00:58;;;;;;;26.50;18.58;;;6.10;1.00;;;6.34;39.59;103055.03;4979653;28;20238;-69
2022/03/22 07:03:27;;;;;;;19.85;17.75;;;6.20;1.00;;;6.52;38.76;103049.03;4976278;28;20191;-69
2022/03/22 07:05:57;;;;;;;25.00;18.05;;;6.40;1.00;;;6.64;38.72;103051.69;4978529;28;20222;-71
2022/03/22 07:08:30;;;;;;;24.77;18.65;;;6.50;1.00;;;6.68;38.40;103054.00;4979730;28;20207;-71
2022/03/22 07:13:45;;;;;;;23.08;19.00;;;6.70;1.00;;;6.90;37.43;103047.72;4976431;28;20705;-70
2022/03/22 07:16:14;;;;;;;23.20;16.17;;;6.80;1.00;;;6.94;37.69;103054.56;4977045;28;20643;-70
2022/03/22 07:18:44;;;;;;;29.80;16.42;;;6.90;1.00;;;7.05;37.86;103043.78;4977451;28;20184;-70
2022/03/22 07:21:12;;;;;;;22.52;19.13;;;6.90;1.00;;;7.16;37.48;103054.53;4975868;28;20678;-70
2022/03/22 07:23:44;;;;;;;25.98;19.10;;;7.00;1.00;;;7.24;37.35;103052.03;4975900;28;20294;-69
2022/03/22 07:26:14;;;;;;;24.88;16.38;;;7.10;1.00;;;7.31;36.75;103049.69;4976063;28;20194;-70
2022/03/22 07:28:44;;;;;;;25.67;17.17;;;7.20;1.00;;;7.45;36.93;103053.91;4974445;28;20215;-70
2022/03/22 07:31:13;;;;;;;25.38;17.05;;;7.30;1.00;;;7.68;36.67;103050.13;4976116;28;20207;-69
2022/03/22 07:33:42;;;;;;;23.77;19.15;;;7.50;1.00;;;7.58;36.62;103052.75;4977233;28;20180;-69
2022/03/22 07:36:11;;;;;;;22.70;19.45;;;7.60;1.00;;;7.62;36.38;103058.72;4977031;28;20203;-69
2022/03/22 07:38:39;;;;;;;27.08;18.80;;;7.50;1.00;;;7.63;36.33;103055.03;4975922;28;20263;-71
2022/03/22 07:41:10;;;;;;;25.15;18.52;;;7.60;1.00;;;7.81;36.66;103050.78;4990028;28;20206;-70
2022/03/22 07:43:41;;;;;;;24.73;19.27;;;7.70;1.00;;;7.95;36.66;103057.66;4989369;28;20239;-70
2022/03/22 07:46:10;;;;;;;23.30;18.77;;;7.80;1.00;;;8.11;36.17;103056.22;4975215;28;20211;-71
2022/03/22 07:48:39;;;;;;;23.20;18.20;;;7.90;1.00;;;8.18;35.57;103059.25;4975920;28;20207;-70
2022/03/22 07:53:53;;;;;;;28.40;19.08;;;8.10;1.00;;;8.37;34.94;103061.19;4944162;28;20211;-71
2022/03/22 07:56:23;;;;;;;22.73;19.67;;;8.20;1.00;;;8.44;35.55;103065.06;4974120;28;20539;-70
2022/03/22 07:58:53;;;;;;;32.03;19.92;;;8.30;1.00;;;8.66;34.72;103060.31;4973752;28;20279;-71
2022/03/22 08:01:21;;;;;;;26.38;19.35;;;8.40;1.00;;;8.66;34.97;103056.78;4974520;28;20184;-70
2022/03/22 08:03:51;;;;;;;22.60;18.05;;;8.50;1.00;;;8.78;34.47;103061.06;4974127;28;20647;-70
2022/03/22 08:06:19;;;;;;;20.85;17.67;;;8.60;1.00;;;8.91;33.98;103064.34;4973676;28;20191;-69
2022/03/22 08:08:48;;;;;;;29.52;19.75;;;8.70;1.00;;;9.06;34.23;103062.97;4974072;28;20634;-69
2022/03/22 08:11:17;;;;;;;24.23;18.83;;;8.90;1.00;;;9.06;34.00;103057.56;4973623;28;20191;-70
2022/03/22 08:13:47;;;;;;;22.10;16.35;;;8.90;1.00;;;9.17;33.55;103064.69;4973446;28;20278;-69
2022/03/22 08:16:16;;;;;;;23.77;19.90;;;9.00;1.00;;;9.21;33.83;103059.84;4973105;28;20600;-68
2022/03/22 08:18:45;;;;;;;24.70;19.10;;;9.10;1.00;;;9.39;33.14;103058.19;4973356;28;20259;-68
2022/03/22 08:21:14;;;;;;;25.35;20.38;;;9.20;1.00;;;9.50;32.55;103061.56;4955706;28;20262;-70
2022/03/22 08:23:43;;;;;;;26.92;17.98;;;9.30;1.00;;;9.63;32.20;103060.44;4972882;28;20360;-71
2022/03/22 08:26:13;;;;;;;19.23;16.10;;;9.40;1.00;;;9.85;32.39;103058.25;4972046;28;20315;-69
2022/03/22 08:28:43;;;;;;;23.45;17.50;;;9.60;1.00;;;10.01;31.76;103050.41;4973162;28;20290;-69
2022/03/22 08:31:14;;;;;;;25.67;18.25;;;9.70;1.00;;;10.27;31.24;103050.63;4973292;28;20338;-70
2022/03/22 08:33:43;;;;;;;22.20;17.45;;;9.90;1.00;;;10.26;30.98;103045.38;4972631;28;20319;-68
2022/03/22 08:36:12;;;;;;;23.92;18.40;;;10.00;1.00;;;10.25;30.33;103054.50;4972934;28;20253;-70
2022/03/22 08:38:41;;;;;;;25.67;18.40;;;10.00;1.00;;;10.45;31.06;103045.31;4972497;28;20710;-71
2022/03/22 08:41:09;;;;;;;19.02;16.13;;;10.10;1.00;;;10.63;30.44;103046.22;4972408;28;20591;-70
2022/03/22 08:43:38;;;;;;;20.77;16.55;;;10.30;1.00;;;10.85;30.24;103045.78;4972571;28;20266;-70
2022/03/22 08:46:07;;;;;;;19.95;16.20;;;10.50;1.00;;;10.95;29.30;103034.88;4972467;28;20191;-71
2022/03/22 08:48:38;;;;;;;20.40;16.17;;;10.80;1.00;;;11.02;29.56;103035.13;4971401;28;20211;-69
2022/03/22 08:51:07;;;;;;;18.95;15.95;;;10.80;1.00;;;11.07;28.93;103043.66;4972113;28;20214;-72
2022/03/22 08:53:36;;;;;;;18.87;15.57;;;10.90;1.00;;;10.95;29.06;103044.88;4972084;28;20195;-70
2022/03/22 08:56:06;;;;;;;21.30;17.00;;;10.80;1.00;;;11.11;29.12;103040.50;4972833;28;20435;-70
2022/03/22 08:58:35;;;;;;;18.15;16.25;;;10.90;1.00;;;11.09;28.51;103037.06;4972597;28;20254;-70
2022/03/22 09:01:04;;;;;;;20.43;15.87;;;10.90;1.00;;;10.95;28.60;103044.88;4965670;28;20243;-70
2022/03/22 09:03:35;;;;;;;17.27;14.75;;;10.80;1.00;;;11.18;28.89;103043.44;4975220;28;20522;-71
2022/03/22 09:06:07;;;;;;;17.75;14.95;;;10.90;1.00;;;11.51;28.40;103036.47;4976877;28;20611;-71
2022/03/22 09:08:37;;;;;;;21.97;15.77;;;11.10;1.00;;;11.58;27.92;103037.50;4981175;28;20180;-72
2022/03/22 09:11:07;;;;;;;20.57;16.03;;;11.30;1.00;;;11.41;27.39;103041.97;4985454;28;20476;-73
2022/03/22 09:13:41;;;;;;;17.60;14.97;;;11.20;1.00;;;11.57;27.77;103041.25;4986012;28;20390;-69
2022/03/22 09:16:14;;;;;;;20.87;14.07;;;11.30;1.00;;;11.77;27.71;103038.22;4968600;28;20409;-70
2022/03/22 09:18:46;;;;;;;17.50;14.63;;;11.50;1.00;;;11.81;27.81;103032.50;4987081;28;20430;-71
2022/03/22 09:21:17;;;;;;;19.10;15.30;;;11.60;1.00;;;11.88;27.65;103034.41;4989007;28;20458;-72
2022/03/22 09:23:46;;;;;;;18.37;14.80;;;11.70;1.00;;;11.79;27.50;103034.50;4997840;28;20509;-70
2022/03/22 09:26:15;;;;;;;17.80;15.87;;;11.60;1.00;;;11.98;27.39;103021.59;4981818;28;20830;-71
2022/03/22 09:28:45;;;;;;;17.47;15.67;;;11.70;1.00;;;12.15;27.47;103027.97;4976317;28;20419;-71
2022/03/22 09:31:18;;;;;;;19.67;17.47;;;11.90;1.00;;;12.37;26.63;103026.53;4973183;28;20476;-70
2022/03/22 09:33:48;;;;;;;19.90;16.40;;;12.00;1.00;;;12.28;27.00;103022.94;4973112;28;20771;-69
2022/03/22 09:36:19;;;;;;;19.80;14.70;;;12.00;1.00;;;12.64;26.61;103010.88;4972312;28;20429;-67
2022/03/22 09:38:48;;;;;;;18.70;15.47;;;12.30;1.00;;;12.57;26.56;103014.41;4972944;28;20415;-70
2022/03/22 09:41:18;;;;;;;17.40;15.13;;;12.30;1.00;;;12.72;26.49;103018.22;4971007;28;20443;-72
2022/03/22 09:43:50;;;;;;;17.00;15.33;;;12.40;1.00;;;12.87;26.62;103010.28;4972252;28;20435;-70
2022/03/22 09:46:22;;;;;;;19.90;17.40;;;12.50;1.00;;;12.61;26.15;103022.06;4972393;28;20490;-70
2022/03/22 09:48:51;;;;;;;19.47;16.73;;;12.40;1.00;;;12.82;26.57;103012.63;4972217;28;20443;-70
2022/03/22 09:54:09;;;;;;;20.17;16.57;;;12.50;1.00;;;12.85;26.07;103015.00;4975159;28;20447;-71
2022/03/22 09:56:38;;;;;;;18.47;16.37;;;12.60;1.00;;;12.84;26.27;103003.28;4957796;28;20806;-72
2022/03/22 09:59:07;;;;;;;17.50;15.40;;;12.60;1.00;;;13.04;26.16;102996.53;4975570;28;20438;-69
2022/03/22 10:01:37;;;;;;;16.77;15.07;;;12.70;1.00;;;13.26;26.30;103003.25;4975612;28;20502;-71
2022/03/22 10:04:09;;;;;;;28.47;17.87;;;12.90;1.00;;;13.30;25.58;102996.44;4974822;28;21035;-70
2022/03/22 10:06:40;;;;;;;20.83;17.80;;;13.00;1.00;;;13.35;25.38;102996.78;4975172;28;20466;-72
2022/03/22 10:09:09;;;;;;;17.73;15.93;;;13.10;1.00;;;13.34;25.75;103002.38;4974574;28;20498;-73
2022/03/22 10:11:40;;;;;;;15.67;13.97;;;13.10;1.00;;;13.36;25.08;103000.34;4975114;28;20518;-71
2022/03/22 10:14:12;;;;;;;16.00;14.47;;;13.10;1.00;;;13.40;25.20;102999.84;4976509;28;20427;-72
2022/03/22 10:16:51;;;;;;;21.60;14.37;;;13.10;1.00;;;13.66;25.20;102990.63;4956411;23;20559;-70
2022/03/22 10:19:24;;;;;;;18.77;15.03;;;13.30;1.00;;;13.43;25.37;102996.78;4934552;29;20431;-69
2022/03/22 10:21:56;;;;;;;15.40;13.80;;;13.20;1.00;;;13.48;25.59;102982.66;4934663;29;20441;-69
2022/03/22 10:24:25;;;;;;;20.93;15.77;;;13.20;1.00;;;13.35;25.45;102980.47;4934711;29;20435;-69
2022/03/22 10:26:54;;;;;;;20.37;14.33;;;13.20;1.00;;;13.31;25.39;102991.84;4934481;29;20447;-70
2022/03/22 10:29:23;;;;;;;15.73;12.93;;;13.10;1.00;;;13.42;25.20;102978.75;4979968;23;20616;-69
2022/03/22 10:31:52;;;;;;;16.03;13.97;;;13.20;1.00;;;13.69;24.89;102980.28;4972094;28;20422;-71
2022/03/22 10:34:29;;;;;;;14.57;13.00;;;13.30;1.00;;;13.69;24.43;102979.41;4972223;28;20397;-72
2022/03/22 10:37:00;;;;;;;16.10;14.33;;;13.30;1.00;;;13.70;24.69;102979.22;4971994;28;20427;-69
2022/03/22 10:39:29;;;;;;;18.80;14.40;;;13.40;1.00;;;13.79;24.38;102970.06;4974110;28;20449;-70
2022/03/22 10:42:07;;;;;;;15.20;13.70;;;13.50;1.00;;;13.88;24.71;102969.00;4976337;28;20447;-70
2022/03/22 10:44:41;;;;;;;15.37;13.53;;;13.60;1.00;;;14.01;24.64;102968.44;4976177;28;20988;-70
2022/03/22 10:47:10;;;;;;;20.20;13.67;;;13.70;1.00;;;14.14;24.14;102963.28;4977213;28;20415;-70
2022/03/22 10:49:39;;;;;;;20.43;14.63;;;13.80;1.00;;;14.26;23.98;102958.31;4976432;28;20474;-72
2022/03/22 10:52:21;;;;;;;17.43;14.67;;;13.80;1.00;;;14.40;24.12;102951.31;4976660;28;20458;-71
2022/03/22 10:54:49;;;;;;;20.77;14.20;;;14.00;1.00;;;14.47;24.03;102949.59;4976456;28;20427;-69
2022/03/22 10:57:28;;;;;;;16.07;14.53;;;14.20;1.00;;;14.57;23.62;102950.22;4975684;28;20449;-71
2022/03/22 11:00:02;;;;;;;17.80;14.60;;;14.20;1.00;;;14.35;23.40;102949.94;4974934;28;20450;-69